createdAt,value
2018-12-08T00:00:16.110Z,39.70
2018-12-08T00:02:46.802Z,40.43
2018-12-08T00:05:17.477Z,40.80
2018-12-08T00:07:48.250Z,37.03
2018-12-08T00:10:18.816Z,40.65
2018-12-08T00:12:49.335Z,33.92
2018-12-08T00:15:20.030Z,47.23
2018-12-08T00:17:50.762Z,38.55
2018-12-08T00:20:21.308Z,43.75
2018-12-08T00:22:52.712Z,35.78
2018-12-08T00:25:23.351Z,35.52
2018-12-08T00:27:53.956Z,39.80
2018-12-08T00:30:35.197Z,35.48
2018-12-08T00:33:05.668Z,41.70
2018-12-08T00:35:36.622Z,38.17
2018-12-08T00:38:07.366Z,36.73
2018-12-08T00:40:38.055Z,38.10
2018-12-08T00:43:08.493Z,37.13
2018-12-08T00:45:39.064Z,36.25
2018-12-08T00:48:09.694Z,39.38
2018-12-08T00:50:40.294Z,34.30
2018-12-08T00:53:11.474Z,38.00
2018-12-08T00:55:42.100Z,35.13
2018-12-08T00:58:12.927Z,35.88
2018-12-08T01:00:43.701Z,39.90
2018-12-08T01:03:14.492Z,36.60
2018-12-08T01:05:45.156Z,36.20
2018-12-08T01:08:15.831Z,38.13
2018-12-08T01:10:46.792Z,29.82
2018-12-08T01:13:17.585Z,33.63
2018-12-08T01:15:48.418Z,32.13
2018-12-08T01:18:19.367Z,31.75
2018-12-08T01:20:50.198Z,31.40
2018-12-08T01:23:21.018Z,30.97
2018-12-08T01:25:51.907Z,26.10
2018-12-08T01:28:22.349Z,24.80
2018-12-08T01:30:53.052Z,30.12
2018-12-08T01:33:23.729Z,25.08
2018-12-08T01:35:54.588Z,28.23
2018-12-08T01:38:25.451Z,27.73
2018-12-08T01:40:56.053Z,27.95
2018-12-08T01:43:26.731Z,32.33
2018-12-08T01:45:57.515Z,28.77
2018-12-08T01:48:28.449Z,28.38
2018-12-08T01:50:59.065Z,26.57
2018-12-08T01:53:29.866Z,28.23
2018-12-08T01:56:00.920Z,29.10
2018-12-08T01:58:31.499Z,25.40
2018-12-08T02:01:02.142Z,24.77
2018-12-08T02:03:32.658Z,27.05
2018-12-08T02:06:03.374Z,25.30
2018-12-08T02:08:34.318Z,26.82
2018-12-08T02:11:07.072Z,22.02
2018-12-08T02:13:37.658Z,23.05
2018-12-08T02:16:08.169Z,23.15
2018-12-08T02:18:38.766Z,23.52
2018-12-08T02:21:09.672Z,24.50
2018-12-08T02:23:40.207Z,27.25
2018-12-08T02:26:10.974Z,22.58
2018-12-08T02:28:41.463Z,26.37
2018-12-08T02:31:12.021Z,25.57
2018-12-08T02:33:42.561Z,26.45
2018-12-08T02:36:13.768Z,24.95
2018-12-08T02:38:44.763Z,25.62
2018-12-08T02:41:15.554Z,24.72
2018-12-08T02:43:46.330Z,27.85
2018-12-08T02:46:17.074Z,22.90
2018-12-08T02:48:47.597Z,27.35
2018-12-08T02:51:18.239Z,29.02
2018-12-08T02:53:49.000Z,24.02
2018-12-08T02:56:19.910Z,24.32
2018-12-08T02:58:50.338Z,23.98
2018-12-08T03:01:20.849Z,26.23
2018-12-08T03:03:51.567Z,26.05
2018-12-08T03:06:22.758Z,31.30
2018-12-08T03:08:53.538Z,20.68
2018-12-08T03:11:23.972Z,23.15
2018-12-08T03:13:54.670Z,23.22
2018-12-08T03:16:25.377Z,25.95
2018-12-08T03:18:56.459Z,30.60
2018-12-08T03:21:27.403Z,22.98
2018-12-08T03:23:57.910Z,21.20
2018-12-08T03:26:28.654Z,26.50
2018-12-08T03:28:59.304Z,21.42
2018-12-08T03:31:30.018Z,25.55
2018-12-08T03:34:00.920Z,26.12
2018-12-08T03:36:31.632Z,24.92
2018-12-08T03:39:02.279Z,24.87
2018-12-08T03:41:34.155Z,23.20
2018-12-08T03:44:04.989Z,22.25
2018-12-08T03:46:35.691Z,28.27
2018-12-08T03:49:06.330Z,35.35
2018-12-08T03:51:36.987Z,31.37
2018-12-08T03:54:07.844Z,32.67
2018-12-08T03:56:38.537Z,26.70
2018-12-08T03:59:09.057Z,26.35
2018-12-08T04:01:39.822Z,25.00
2018-12-08T04:04:10.780Z,28.98
2018-12-08T04:06:41.475Z,24.37
2018-12-08T04:09:12.218Z,23.77
2018-12-08T04:11:42.775Z,30.62
2018-12-08T04:14:13.378Z,27.32
2018-12-08T04:16:44.253Z,34.18
2018-12-08T04:19:14.717Z,35.30
2018-12-08T04:21:45.388Z,31.93
2018-12-08T04:24:16.674Z,32.67
2018-12-08T04:26:47.405Z,31.05
2018-12-08T04:29:18.138Z,37.20
2018-12-08T04:31:48.886Z,33.20
2018-12-08T04:34:19.707Z,45.85
2018-12-08T04:36:50.504Z,39.83
2018-12-08T04:39:21.476Z,31.35
2018-12-08T04:41:52.257Z,33.08
2018-12-08T04:44:22.733Z,31.57
2018-12-08T04:46:53.998Z,40.78
2018-12-08T04:49:24.873Z,42.48
2018-12-08T04:51:55.559Z,44.20
2018-12-08T04:54:26.046Z,48.30
2018-12-08T04:56:56.693Z,41.95
2018-12-08T04:59:27.685Z,41.13
2018-12-08T05:01:58.172Z,36.65
2018-12-08T05:04:28.762Z,36.20
2018-12-08T05:06:59.931Z,38.60
2018-12-08T05:09:30.585Z,46.70
2018-12-08T05:12:01.528Z,32.70
2018-12-08T05:14:32.781Z,38.58
2018-12-08T05:17:03.480Z,36.75
2018-12-08T05:19:33.967Z,39.90
2018-12-08T05:22:04.758Z,44.65
2018-12-08T05:24:35.575Z,51.45
2018-12-08T05:27:06.261Z,29.85
2018-12-08T05:29:36.867Z,33.05
2018-12-08T05:32:07.544Z,33.42
2018-12-08T05:34:38.205Z,29.87
2018-12-08T05:37:09.385Z,33.08
2018-12-08T05:39:40.048Z,36.13
2018-12-08T05:42:10.827Z,39.80
2018-12-08T05:44:41.427Z,39.53
2018-12-08T05:47:12.328Z,39.58
2018-12-08T05:49:43.154Z,78.70
2018-12-08T05:52:13.911Z,96.63
2018-12-08T05:54:44.488Z,63.45
2018-12-08T05:57:15.190Z,35.25
2018-12-08T05:59:45.883Z,35.95
2018-12-08T06:02:16.652Z,34.60
2018-12-08T06:04:47.211Z,30.15
2018-12-08T06:07:18.057Z,39.83
2018-12-08T06:09:49.717Z,33.35
2018-12-08T06:12:20.165Z,47.08
2018-12-08T06:14:50.660Z,37.28
2018-12-08T06:17:21.101Z,71.47
2018-12-08T06:19:51.732Z,55.23
2018-12-08T06:22:22.382Z,33.85
2018-12-08T06:24:53.082Z,27.30
2018-12-08T06:27:34.415Z,22.65
2018-12-08T06:30:05.151Z,28.17
2018-12-08T06:32:35.685Z,29.25
2018-12-08T06:35:06.342Z,27.40
2018-12-08T06:37:37.173Z,21.48
2018-12-08T06:40:07.934Z,27.25
2018-12-08T06:42:38.552Z,25.27
2018-12-08T06:45:10.447Z,30.77
2018-12-08T06:47:41.168Z,31.37
2018-12-08T06:50:11.874Z,34.83
2018-12-08T06:52:42.594Z,41.30
2018-12-08T06:55:13.229Z,25.92
2018-12-08T06:57:43.966Z,26.03
2018-12-08T07:00:14.669Z,24.40
2018-12-08T07:02:45.392Z,33.97
2018-12-08T07:05:16.348Z,21.03
2018-12-08T07:07:47.301Z,25.00
2018-12-08T07:10:18.053Z,23.77
2018-12-08T07:12:48.633Z,25.47
2018-12-08T07:15:19.255Z,30.87
2018-12-08T07:17:52.459Z,23.60
2018-12-08T07:20:23.501Z,22.10
2018-12-08T07:22:54.458Z,70.77
2018-12-08T07:25:25.272Z,91.07
2018-12-08T07:27:56.005Z,56.77
2018-12-08T07:30:26.696Z,37.90
2018-12-08T07:32:57.691Z,51.60
2018-12-08T07:35:28.415Z,24.93
2018-12-08T07:37:59.245Z,28.33
2018-12-08T07:40:29.827Z,44.23
2018-12-08T07:43:00.270Z,59.27
2018-12-08T07:45:30.821Z,41.83
2018-12-08T07:48:01.337Z,41.80
2018-12-08T07:50:32.245Z,21.97
2018-12-08T07:53:04.456Z,24.37
2018-12-08T07:55:35.339Z,22.77
2018-12-08T07:58:06.405Z,22.60
2018-12-08T08:00:37.105Z,24.80
2018-12-08T08:03:07.910Z,28.80
2018-12-08T08:05:38.521Z,26.03
2018-12-08T08:08:09.210Z,18.13
2018-12-08T08:10:39.832Z,21.80
2018-12-08T08:13:10.432Z,25.10
2018-12-08T08:15:41.774Z,26.47
2018-12-08T08:18:12.514Z,15.13
2018-12-08T08:20:43.124Z,21.77
2018-12-08T08:23:13.922Z,22.87
2018-12-08T08:25:44.500Z,32.50
2018-12-08T08:28:15.228Z,47.33
2018-12-08T08:30:46.121Z,43.07
2018-12-08T08:33:16.636Z,33.83
2018-12-08T08:35:47.410Z,23.97
2018-12-08T08:38:18.398Z,33.73
2018-12-08T08:40:49.654Z,24.57
2018-12-08T08:43:20.283Z,41.80
2018-12-08T08:45:50.895Z,23.93
2018-12-08T08:48:21.554Z,31.43
2018-12-08T08:50:52.360Z,29.37
2018-12-08T08:53:23.184Z,32.77
2018-12-08T08:55:53.889Z,29.33
2018-12-08T08:58:24.635Z,21.97
2018-12-08T09:00:55.302Z,24.00
2018-12-08T09:03:26.186Z,28.70
2018-12-08T09:05:57.558Z,18.50
2018-12-08T09:08:28.618Z,22.37
2018-12-08T09:10:59.198Z,18.57
2018-12-08T09:13:30.178Z,24.10
2018-12-08T09:16:00.892Z,25.77
2018-12-08T09:18:31.503Z,27.10
2018-12-08T09:21:03.263Z,20.03
2018-12-08T09:23:34.050Z,18.87
2018-12-08T09:26:04.987Z,16.70
2018-12-08T09:28:35.609Z,25.73
2018-12-08T09:31:06.365Z,40.30
2018-12-08T09:33:37.304Z,36.90
2018-12-08T09:36:07.998Z,30.40
2018-12-08T09:38:38.812Z,48.93
2018-12-08T09:41:09.430Z,41.80
2018-12-08T09:43:40.211Z,37.37
2018-12-08T09:46:11.163Z,42.10
2018-12-08T09:48:42.219Z,33.83
2018-12-08T09:51:12.801Z,27.00
2018-12-08T09:53:43.666Z,33.33
2018-12-08T09:56:15.657Z,26.00
2018-12-08T09:58:46.597Z,39.37
2018-12-08T10:01:17.311Z,26.20
2018-12-08T10:03:48.295Z,30.50
2018-12-08T10:06:20.225Z,34.10
2018-12-08T10:08:50.990Z,43.37
2018-12-08T10:11:21.865Z,40.63
2018-12-08T10:13:52.552Z,19.27
2018-12-08T10:16:23.278Z,46.80
2018-12-08T10:18:53.885Z,39.83
2018-12-08T10:21:24.463Z,27.63
2018-12-08T10:23:55.155Z,36.67
2018-12-08T10:26:25.757Z,61.83
2018-12-08T10:28:56.523Z,35.70
2018-12-08T10:31:27.068Z,26.40
2018-12-08T10:33:57.831Z,24.33
2018-12-08T10:36:28.603Z,43.10
2018-12-08T10:38:59.138Z,33.27
2018-12-08T10:41:29.722Z,52.97
2018-12-08T10:44:00.299Z,37.07
2018-12-08T10:46:31.096Z,40.57
2018-12-08T10:49:02.153Z,37.43
2018-12-08T10:51:33.194Z,50.03
2018-12-08T10:54:06.336Z,34.97
2018-12-08T10:56:37.086Z,43.17
2018-12-08T10:59:07.791Z,38.43
2018-12-08T11:01:43.405Z,36.90
2018-12-08T11:04:14.060Z,41.87
2018-12-08T11:06:47.074Z,25.33
2018-12-08T11:09:18.082Z,28.83
2018-12-08T11:11:48.880Z,62.20
2018-12-08T11:14:19.810Z,46.10
2018-12-08T11:16:50.369Z,53.63
2018-12-08T11:19:21.357Z,31.93
2018-12-08T11:21:52.327Z,64.30
2018-12-08T11:24:23.276Z,85.83
2018-12-08T11:26:53.717Z,68.93
2018-12-08T11:29:24.563Z,65.70
2018-12-08T11:31:55.234Z,76.63
2018-12-08T11:34:26.073Z,62.03
2018-12-08T11:36:57.117Z,76.07
2018-12-08T11:39:27.657Z,59.17
2018-12-08T11:41:58.745Z,42.70
2018-12-08T11:44:29.677Z,41.10
2018-12-08T11:47:00.676Z,79.73
2018-12-08T11:49:31.383Z,54.03
2018-12-08T11:52:02.004Z,45.07
2018-12-08T11:54:32.472Z,29.73
2018-12-08T11:57:02.914Z,71.83
2018-12-08T11:59:33.899Z,60.00
2018-12-08T12:02:04.566Z,74.43
2018-12-08T12:04:35.502Z,39.07
2018-12-08T12:07:06.034Z,69.93
2018-12-08T12:09:36.937Z,96.10
2018-12-08T12:12:07.839Z,61.60
2018-12-08T12:14:48.694Z,74.77
2018-12-08T12:17:19.427Z,56.97
2018-12-08T12:19:50.100Z,74.53
2018-12-08T12:22:20.843Z,41.53
2018-12-08T12:24:51.249Z,45.27
2018-12-08T12:27:21.838Z,29.43
2018-12-08T12:29:52.648Z,24.33
2018-12-08T12:32:23.536Z,38.73
2018-12-08T12:34:53.973Z,41.10
2018-12-08T12:37:24.967Z,31.77
2018-12-08T12:39:55.661Z,45.73
2018-12-08T12:42:26.629Z,40.03
2018-12-08T12:44:57.315Z,40.20
2018-12-08T12:47:28.164Z,30.77
2018-12-08T12:49:58.810Z,35.07
2018-12-08T12:52:29.344Z,36.13
2018-12-08T12:54:59.951Z,41.20
2018-12-08T12:57:30.687Z,56.83
2018-12-08T13:00:01.533Z,48.73
2018-12-08T13:02:32.544Z,33.03
2018-12-08T13:05:03.410Z,25.50
2018-12-08T13:07:33.971Z,32.40
2018-12-08T13:10:04.635Z,21.80
2018-12-08T13:12:35.929Z,22.73
2018-12-08T13:15:07.080Z,25.60
2018-12-08T13:17:37.767Z,45.00
2018-12-08T13:20:08.340Z,28.60
2018-12-08T13:22:39.014Z,22.10
2018-12-08T13:25:22.961Z,18.37
2018-12-08T13:27:53.624Z,21.17
2018-12-08T13:30:24.505Z,26.23
2018-12-08T13:32:55.440Z,26.77
2018-12-08T13:35:36.636Z,27.50
2018-12-08T13:38:07.301Z,21.93
2018-12-08T13:40:37.972Z,37.10
2018-12-08T13:43:08.601Z,20.53
2018-12-08T13:45:39.222Z,26.80
2018-12-08T13:48:10.257Z,26.20
2018-12-08T13:50:41.183Z,23.13
2018-12-08T13:53:11.944Z,26.37
2018-12-08T13:55:42.612Z,22.97
2018-12-08T13:58:13.364Z,25.60
2018-12-08T14:00:44.290Z,21.43
2018-12-08T14:03:14.789Z,28.93
2018-12-08T14:05:45.591Z,29.73
2018-12-08T14:08:16.300Z,24.87
2018-12-08T14:10:47.109Z,22.83
2018-12-08T14:13:17.632Z,41.67
2018-12-08T14:15:48.314Z,26.83
2018-12-08T14:18:18.808Z,32.00
2018-12-08T14:20:49.830Z,26.07
2018-12-08T14:23:20.685Z,34.23
2018-12-08T14:25:51.313Z,31.63
2018-12-08T14:28:22.207Z,32.47
2018-12-08T14:30:53.045Z,38.93
2018-12-08T14:33:23.692Z,43.43
2018-12-08T14:35:54.179Z,45.77
2018-12-08T14:38:28.071Z,55.67
2018-12-08T14:40:59.099Z,63.83
2018-12-08T14:43:30.855Z,80.00
2018-12-08T14:46:01.542Z,85.67
2018-12-08T14:48:31.954Z,91.17
2018-12-08T14:51:02.837Z,95.72
2018-12-08T14:53:34.078Z,120.80
2018-12-08T14:56:04.933Z,140.55
2018-12-08T14:58:35.553Z,113.30
2018-12-08T15:01:06.343Z,125.33
2018-12-08T15:03:37.099Z,127.27
2018-12-08T15:06:08.061Z,147.15
2018-12-08T15:08:39.007Z,190.85
2018-12-08T15:11:09.796Z,144.97
2018-12-08T15:13:40.653Z,182.93
2018-12-08T15:16:11.383Z,149.65
2018-12-08T15:18:42.314Z,156.40
2018-12-08T15:21:13.143Z,146.07
2018-12-08T15:23:44.158Z,155.32
2018-12-08T15:26:14.832Z,149.35
2018-12-08T15:28:45.324Z,133.60
2018-12-08T15:31:15.774Z,119.02
2018-12-08T15:33:46.268Z,86.90
2018-12-08T15:36:17.110Z,80.87
2018-12-08T15:38:47.712Z,71.35
2018-12-08T15:41:18.426Z,66.17
2018-12-08T15:43:49.629Z,66.05
2018-12-08T15:46:20.180Z,62.35
2018-12-08T15:48:51.107Z,67.95
2018-12-08T15:51:21.847Z,78.02
2018-12-08T15:53:52.643Z,75.17
2018-12-08T15:56:23.264Z,67.25
2018-12-08T15:58:55.086Z,64.27
2018-12-08T16:01:25.923Z,64.22
2018-12-08T16:03:56.571Z,50.80
2018-12-08T16:06:27.240Z,54.03
2018-12-08T16:08:57.825Z,47.00
2018-12-08T16:11:28.717Z,46.02
2018-12-08T16:13:59.327Z,49.83
2018-12-08T16:16:29.956Z,44.40
2018-12-08T16:19:00.660Z,60.92
2018-12-08T16:21:31.342Z,63.87
2018-12-08T16:24:02.280Z,59.83
2018-12-08T16:26:33.118Z,56.60
2018-12-08T16:29:09.151Z,61.40
2018-12-08T16:31:39.979Z,58.02
2018-12-08T16:34:11.017Z,62.13
2018-12-08T16:36:42.090Z,64.65
2018-12-08T16:39:14.606Z,57.45
2018-12-08T16:41:46.071Z,48.58
2018-12-08T16:44:45.621Z,63.23
2018-12-08T16:47:16.236Z,67.47
2018-12-08T16:49:46.852Z,69.17
2018-12-08T16:52:17.604Z,56.25
2018-12-08T16:58:02.557Z,56.95
2018-12-08T17:00:33.219Z,57.95
2018-12-08T17:06:21.017Z,55.90
2018-12-08T17:08:51.871Z,48.60
2018-12-08T17:11:28.393Z,53.63
2018-12-08T17:13:59.278Z,54.70
2018-12-08T17:16:30.223Z,45.30
2018-12-08T17:19:01.419Z,41.33
2018-12-08T17:21:32.037Z,43.35
2018-12-08T17:24:02.736Z,39.35
2018-12-08T17:26:33.592Z,40.75
2018-12-08T17:29:06.081Z,45.45
2018-12-08T17:31:37.425Z,39.60
2018-12-08T17:34:08.092Z,40.55
2018-12-08T17:36:39.087Z,53.65
2018-12-08T17:39:10.862Z,44.70
2018-12-08T17:41:41.742Z,39.73
2018-12-08T17:44:12.833Z,34.38
2018-12-08T17:46:43.611Z,29.35
2018-12-08T17:49:14.378Z,46.92
2018-12-08T17:51:45.015Z,53.80
2018-12-08T17:54:15.617Z,30.50
2018-12-08T17:56:46.542Z,22.70
2018-12-08T17:59:17.289Z,21.85
2018-12-08T18:01:47.808Z,30.62
2018-12-08T18:04:19.606Z,27.80
2018-12-08T18:06:50.357Z,24.12
2018-12-08T18:09:20.968Z,26.65
2018-12-08T18:11:52.083Z,25.30
2018-12-08T18:14:22.617Z,33.63
2018-12-08T18:16:53.160Z,28.12
2018-12-08T18:19:23.841Z,28.92
2018-12-08T18:21:54.646Z,24.35
2018-12-08T18:24:25.288Z,37.75
2018-12-08T18:26:57.350Z,32.05
2018-12-08T18:29:27.859Z,32.67
2018-12-08T18:31:58.598Z,28.50
2018-12-08T18:34:29.160Z,41.37
2018-12-08T18:36:59.905Z,23.77
2018-12-08T18:39:30.830Z,17.48
2018-12-08T18:42:01.531Z,16.57
2018-12-08T18:44:32.385Z,17.37
2018-12-08T18:47:02.997Z,19.55
2018-12-08T18:49:33.592Z,21.80
2018-12-08T18:52:04.178Z,23.57
2018-12-08T18:54:34.724Z,25.37
2018-12-08T18:57:05.542Z,24.27
2018-12-08T18:59:36.669Z,25.37
2018-12-08T19:02:07.436Z,32.08
2018-12-08T19:04:38.101Z,31.55
2018-12-08T19:07:08.921Z,27.75
2018-12-08T19:09:40.586Z,27.50
2018-12-08T19:12:11.607Z,27.62
2018-12-08T19:14:42.267Z,21.80
2018-12-08T19:17:13.009Z,22.32
2018-12-08T19:19:43.935Z,26.37
2018-12-08T19:22:14.663Z,27.27
2018-12-08T19:24:46.092Z,26.42
2018-12-08T19:27:16.706Z,27.40
2018-12-08T19:29:48.374Z,22.98
2018-12-08T19:32:19.213Z,31.77
2018-12-08T19:34:49.935Z,23.55
2018-12-08T19:37:20.545Z,25.60
2018-12-08T19:39:51.425Z,30.77
2018-12-08T19:42:21.860Z,27.55
2018-12-08T19:44:52.902Z,23.75
2018-12-08T19:47:23.739Z,24.15
2018-12-08T19:49:54.341Z,23.80
2018-12-08T19:52:25.074Z,21.42
2018-12-08T19:54:56.121Z,23.65
2018-12-08T19:57:26.983Z,22.52
2018-12-08T19:59:57.506Z,23.73
2018-12-08T20:02:28.157Z,21.62
2018-12-08T20:04:59.080Z,22.93
2018-12-08T20:07:30.106Z,25.60
2018-12-08T20:10:00.721Z,25.27
2018-12-08T20:12:32.303Z,28.90
2018-12-08T20:15:02.951Z,26.95
2018-12-08T20:17:33.516Z,24.55
2018-12-08T20:20:04.341Z,34.63
2018-12-08T20:22:35.048Z,49.25
2018-12-08T20:25:06.199Z,43.25
2018-12-08T20:27:37.228Z,31.05
2018-12-08T20:30:08.947Z,37.42
2018-12-08T20:32:39.815Z,35.17
2018-12-08T20:35:10.596Z,37.80
2018-12-08T20:37:41.128Z,31.42
2018-12-08T20:40:12.400Z,37.63
2018-12-08T20:42:43.007Z,39.73
2018-12-08T20:45:13.682Z,56.20
2018-12-08T20:47:44.442Z,37.03
2018-12-08T20:50:15.250Z,40.73
2018-12-08T20:52:46.030Z,27.35
2018-12-08T20:55:17.817Z,25.75
2018-12-08T20:57:48.539Z,27.40
2018-12-08T21:00:19.379Z,27.95
2018-12-08T21:02:49.962Z,26.57
2018-12-08T21:05:20.575Z,27.32
2018-12-08T21:07:51.197Z,29.05
2018-12-08T21:10:21.905Z,24.00
2018-12-08T21:12:52.772Z,26.62
2018-12-08T21:15:23.288Z,25.92
2018-12-08T21:17:54.042Z,30.68
2018-12-08T21:20:24.727Z,29.42
2018-12-08T21:22:55.343Z,33.25
2018-12-08T21:25:25.945Z,27.90
2018-12-08T21:27:56.413Z,27.87
2018-12-08T21:30:26.934Z,31.12
2018-12-08T21:32:57.547Z,33.40
2018-12-08T21:35:28.450Z,38.42
2018-12-08T21:37:59.290Z,30.37
2018-12-08T21:40:30.850Z,32.88
2018-12-08T21:43:01.498Z,29.85
2018-12-08T21:45:32.104Z,29.82
2018-12-08T21:48:02.633Z,28.42
2018-12-08T21:50:33.281Z,32.98
2018-12-08T21:53:03.800Z,31.17
2018-12-08T21:55:34.756Z,31.00
2018-12-08T21:58:05.607Z,33.20
2018-12-08T22:00:36.386Z,32.05
2018-12-08T22:03:06.908Z,35.63
2018-12-08T22:05:37.579Z,30.12
2018-12-08T22:08:08.123Z,31.93
2018-12-08T22:10:39.072Z,36.33
2018-12-08T22:13:09.865Z,35.05
2018-12-08T22:15:41.113Z,34.70
2018-12-08T22:18:11.732Z,33.48
2018-12-08T22:20:42.429Z,33.50
2018-12-08T22:23:13.046Z,29.25
2018-12-08T22:25:43.582Z,39.25
2018-12-08T22:28:14.234Z,34.88
2018-12-08T22:30:45.545Z,29.12
2018-12-08T22:33:16.093Z,28.83
2018-12-08T22:35:47.088Z,33.48
2018-12-08T22:38:17.700Z,26.97
2018-12-08T22:40:48.490Z,28.87
2018-12-08T22:43:19.101Z,25.25
2018-12-08T22:45:49.839Z,31.77
2018-12-08T22:48:20.938Z,29.20
2018-12-08T22:50:51.584Z,29.30
2018-12-08T22:53:22.246Z,26.40
2018-12-08T22:55:56.233Z,30.35
2018-12-08T22:58:27.175Z,29.80
2018-12-08T23:00:57.819Z,31.93
2018-12-08T23:03:28.747Z,35.55
2018-12-08T23:05:59.581Z,33.15
2018-12-08T23:08:31.341Z,34.25
2018-12-08T23:11:01.920Z,34.92
2018-12-08T23:13:34.085Z,28.77
2018-12-08T23:16:04.812Z,30.48
2018-12-08T23:18:35.380Z,28.25
2018-12-08T23:21:06.340Z,29.65
2018-12-08T23:23:36.860Z,26.68
2018-12-08T23:26:07.652Z,29.92
2018-12-08T23:28:40.108Z,31.07
2018-12-08T23:31:11.256Z,26.80
2018-12-08T23:33:42.247Z,27.58
2018-12-08T23:36:13.002Z,25.40
2018-12-08T23:38:43.974Z,25.70
2018-12-08T23:41:15.084Z,28.52
2018-12-08T23:43:45.701Z,25.62
2018-12-08T23:46:16.381Z,24.05
2018-12-08T23:48:47.073Z,28.73
2018-12-08T23:51:18.582Z,27.42
2018-12-08T23:53:49.833Z,27.62
2018-12-08T23:56:20.823Z,32.83
2018-12-08T23:58:51.831Z,30.82
